Time;durP1;ratioP1;P1;durP2;ratioP2;P2;SDS_P1;SDS_P2;PMS_P1;PMS_P2;Temp;Humidity;BMP_temperature;BMP_pressure;BME280_temperature;BME280_humidity;BME280_pressure;Samples;Min_cycle;Max_cycle;Signal;HPM_P1;HPM_P2
2023/05/12 00:03:47;;;;;;;40.15;27.90;;;12.80;99.90;;;;;;12477975;28;20048;-39
2023/05/12 00:09:50;;;;;;;44.65;27.48;;;12.70;99.90;;;;;;12489388;28;20053;-39
2023/05/12 00:15:54;;;;;;;35.67;24.67;;;12.60;99.90;;;;;;12457330;28;20042;-39
2023/05/12 00:21:56;;;;;;;41.40;26.35;;;12.60;99.90;;;;;;12481990;28;20456;-40
2023/05/12 00:27:58;;;;;;;36.67;23.85;;;12.60;99.90;;;;;;12467846;28;20041;-39
2023/05/12 00:33:59;;;;;;;28.20;19.30;;;12.50;99.90;;;;;;12439726;28;21123;-39
2023/05/12 00:40:02;;;;;;;25.98;18.83;;;12.50;99.90;;;;;;12465273;28;20067;-39
2023/05/12 00:46:05;;;;;;;24.27;17.15;;;12.50;99.90;;;;;;12445031;28;20390;-39
2023/05/12 00:52:07;;;;;;;24.27;15.05;;;12.60;99.90;;;;;;12447642;28;20076;-39
2023/05/12 00:58:09;;;;;;;16.23;13.10;;;12.50;99.90;;;;;;12475042;28;20120;-39
2023/05/12 01:04:11;;;;;;;16.15;12.90;;;12.50;99.90;;;;;;12479158;28;20041;-39
2023/05/12 01:10:20;;;;;;;19.63;14.27;;;12.40;99.90;;;;;;12455443;28;20132;-39
2023/05/12 01:16:27;;;;;;;17.00;14.63;;;12.40;99.90;;;;;;12456755;28;20484;-39
2023/05/12 01:22:30;;;;;;;19.13;14.10;;;12.20;99.90;;;;;;12485873;28;20045;-39
2023/05/12 01:28:33;;;;;;;59.92;21.10;;;12.10;99.90;;;;;;12496613;28;20148;-39
2023/05/12 01:34:35;;;;;;;37.53;20.52;;;12.00;99.90;;;;;;12476059;28;20042;-39
2023/05/12 01:40:37;;;;;;;34.97;21.63;;;12.00;99.90;;;;;;12485839;28;20060;-39
2023/05/12 01:46:39;;;;;;;28.63;19.95;;;12.10;99.90;;;;;;12488780;28;20053;-39
2023/05/12 01:52:42;;;;;;;32.00;20.33;;;12.20;99.90;;;;;;12494081;28;20052;-39
2023/05/12 01:58:44;;;;;;;30.23;18.55;;;12.20;99.90;;;;;;12475717;28;20429;-39
2023/05/12 02:04:46;;;;;;;22.60;17.73;;;12.20;99.90;;;;;;12487414;28;20134;-39
2023/05/12 02:10:48;;;;;;;23.02;16.45;;;12.00;99.90;;;;;;12454640;28;20088;-39
2023/05/12 02:16:51;;;;;;;24.65;16.38;;;12.00;99.90;;;;;;12443180;28;20170;-39
2023/05/12 02:22:53;;;;;;;21.05;15.77;;;11.90;99.90;;;;;;12446629;28;20049;-39
2023/05/12 02:28:55;;;;;;;23.85;17.10;;;12.00;99.90;;;;;;12455793;28;20092;-39
2023/05/12 02:34:57;;;;;;;28.10;18.70;;;12.00;99.90;;;;;;12457040;28;20125;-39
2023/05/12 02:41:00;;;;;;;25.35;16.95;;;12.10;99.90;;;;;;12456080;28;20072;-39
2023/05/12 02:47:03;;;;;;;27.48;18.77;;;12.10;99.90;;;;;;12437242;28;20042;-39
2023/05/12 02:53:04;;;;;;;21.42;16.90;;;12.30;99.90;;;;;;12418831;28;20049;-39
2023/05/12 02:59:06;;;;;;;25.70;16.98;;;12.10;99.90;;;;;;12441090;28;20045;-39
2023/05/12 03:05:08;;;;;;;27.73;19.55;;;12.20;99.90;;;;;;12454643;28;20099;-39
2023/05/12 03:11:10;;;;;;;23.08;16.83;;;12.20;99.90;;;;;;12492431;28;20437;-39
2023/05/12 03:17:12;;;;;;;27.55;20.05;;;12.20;99.90;;;;;;12506709;28;20049;-39
2023/05/12 03:23:15;;;;;;;19.00;13.70;;;12.10;99.90;;;;;;12495630;28;20458;-39
2023/05/12 03:29:17;;;;;;;25.17;17.60;;;12.30;99.90;;;;;;12473142;28;20042;-39
2023/05/12 03:35:19;;;;;;;36.42;18.45;;;12.10;99.90;;;;;;12501871;28;20045;-39
2023/05/12 03:41:21;;;;;;;24.33;19.40;;;12.00;99.90;;;;;;12490308;28;20091;-40
2023/05/12 03:47:23;;;;;;;26.38;18.48;;;12.10;99.90;;;;;;12470890;28;20136;-39
2023/05/12 03:53:29;;;;;;;24.17;17.38;;;12.00;99.90;;;;;;12468760;28;20060;-39
2023/05/12 03:59:32;;;;;;;23.25;17.30;;;12.00;99.90;;;;;;12503052;28;20088;-39
2023/05/12 04:05:35;;;;;;;21.40;16.42;;;12.10;99.90;;;;;;12472059;28;20057;-39
2023/05/12 04:11:37;;;;;;;22.27;16.75;;;12.20;99.90;;;;;;12494296;28;20045;-39
2023/05/12 04:17:39;;;;;;;24.25;16.63;;;12.10;99.90;;;;;;12485913;28;20084;-39
2023/05/12 04:23:41;;;;;;;19.98;15.65;;;12.20;99.90;;;;;;12490652;28;20059;-39
2023/05/12 04:29:43;;;;;;;17.80;14.18;;;12.20;99.90;;;;;;12494207;28;20052;-39
2023/05/12 04:35:45;;;;;;;20.13;15.48;;;12.10;99.90;;;;;;12479584;28;20042;-39
2023/05/12 04:41:47;;;;;;;11.75;9.82;;;12.00;99.90;;;;;;12481629;28;20057;-39
2023/05/12 04:47:49;;;;;;;17.20;14.38;;;12.30;99.90;;;;;;12486814;28;20100;-39
2023/05/12 04:53:51;;;;;;;28.65;16.98;;;12.30;99.90;;;;;;12481819;28;20045;-39
2023/05/12 04:59:53;;;;;;;27.80;18.63;;;12.30;99.90;;;;;;12497670;28;20516;-39
2023/05/12 05:05:54;;;;;;;31.88;20.65;;;12.20;99.90;;;;;;12483595;28;20045;-39
2023/05/12 05:11:56;;;;;;;29.95;20.42;;;12.30;99.90;;;;;;12486469;28;20053;-39
2023/05/12 05:17:58;;;;;;;31.48;20.33;;;12.20;99.90;;;;;;12463581;28;20053;-39
2023/05/12 05:24:02;;;;;;;30.33;20.42;;;12.30;99.90;;;;;;12467624;28;20045;-39
2023/05/12 05:30:07;;;;;;;28.10;19.08;;;12.40;99.90;;;;;;12482875;28;20068;-39
2023/05/12 05:36:09;;;;;;;20.58;15.77;;;12.40;99.90;;;;;;12434682;28;20045;-39
2023/05/12 05:42:11;;;;;;;21.60;15.68;;;12.50;99.90;;;;;;12459269;28;20045;-39
2023/05/12 05:48:13;;;;;;;23.40;17.00;;;12.60;99.90;;;;;;12500859;28;20073;-39
2023/05/12 05:54:15;;;;;;;20.88;16.17;;;12.60;99.90;;;;;;12494929;28;20042;-39
2023/05/12 06:00:17;;;;;;;19.05;14.63;;;12.70;99.90;;;;;;12500115;28;20049;-39
2023/05/12 06:06:19;;;;;;;22.63;15.27;;;12.80;99.90;;;;;;12464899;28;20050;-40
2023/05/12 06:12:21;;;;;;;19.80;14.60;;;12.90;99.90;;;;;;12441917;28;20050;-39
2023/05/12 06:18:23;;;;;;;17.55;10.85;;;13.20;99.90;;;;;;12421933;28;20068;-40
2023/05/12 06:24:25;;;;;;;14.25;9.30;;;13.00;99.90;;;;;;12424940;28;20137;-39
2023/05/12 06:30:27;;;;;;;11.52;8.40;;;13.10;99.90;;;;;;12410110;28;20756;-39
2023/05/12 06:36:29;;;;;;;13.15;9.05;;;13.10;99.90;;;;;;12406350;28;20052;-39
2023/05/12 06:42:31;;;;;;;12.43;9.00;;;13.20;99.90;;;;;;12406885;28;20099;-39
2023/05/12 06:48:33;;;;;;;11.85;8.48;;;13.30;99.90;;;;;;12412866;28;20045;-39
2023/05/12 06:54:35;;;;;;;10.93;7.45;;;13.40;99.90;;;;;;12420131;28;20513;-39
2023/05/12 07:00:37;;;;;;;10.00;6.97;;;13.50;99.90;;;;;;12422825;28;20046;-39
2023/05/12 07:06:38;;;;;;;8.20;5.65;;;13.80;99.90;;;;;;12439098;28;20100;-39
2023/05/12 07:12:40;;;;;;;9.50;6.72;;;13.80;99.90;;;;;;12476496;28;20057;-40
2023/05/12 07:18:43;;;;;;;5.93;5.03;;;14.00;99.90;;;;;;12495414;28;20543;-40
2023/05/12 07:24:45;;;;;;;8.90;7.03;;;14.20;99.90;;;;;;12498534;28;20056;-39
2023/05/12 07:30:48;;;;;;;9.13;6.65;;;14.70;99.90;;;;;;12492213;28;20132;-40
2023/05/12 07:36:50;;;;;;;7.57;5.82;;;14.80;99.90;;;;;;12476921;28;20132;-39
2023/05/12 07:42:52;;;;;;;10.90;6.45;;;14.90;99.90;;;;;;12485744;28;20049;-39
2023/05/12 07:48:54;;;;;;;10.70;6.65;;;14.90;99.90;;;;;;12485539;28;20052;-40
2023/05/12 07:54:56;;;;;;;8.52;6.63;;;15.20;99.90;;;;;;12484191;28;20120;-39
2023/05/12 08:01:04;;;;;;;8.65;7.28;;;15.40;99.90;;;;;;12485543;28;20076;-39
2023/05/12 08:07:06;;;;;;;7.63;6.63;;;15.70;99.90;;;;;;12460413;28;20065;-40
2023/05/12 08:13:08;;;;;;;7.60;6.22;;;15.90;99.90;;;;;;12470901;28;20440;-38
2023/05/12 08:19:11;;;;;;;7.07;5.63;;;15.70;99.90;;;;;;12480294;28;20135;-37
2023/05/12 08:25:13;;;;;;;12.50;7.97;;;15.90;99.90;;;;;;12469075;28;20136;-38
2023/05/12 08:31:15;;;;;;;11.32;7.28;;;15.80;99.90;;;;;;12484057;28;20144;-37
2023/05/12 08:37:18;;;;;;;9.40;7.53;;;15.80;99.90;;;;;;12483456;28;20462;-37
2023/05/12 08:43:24;;;;;;;11.05;7.93;;;16.10;99.90;;;;;;12501460;28;20097;-39
2023/05/12 08:49:30;;;;;;;15.40;8.45;;;16.30;99.90;;;;;;12475726;28;20052;-39
2023/05/12 08:55:33;;;;;;;9.32;7.50;;;16.10;99.90;;;;;;12483356;28;20046;-39
2023/05/12 09:01:36;;;;;;;9.25;7.25;;;16.30;99.90;;;;;;12479414;28;20041;-40
2023/05/12 09:07:42;;;;;;;13.90;9.68;;;16.60;99.90;;;;;;12450739;28;20490;-39
2023/05/12 09:14:08;;;;;;;11.88;10.00;;;16.70;99.90;;;;;;12475724;28;20132;-41
2023/05/12 09:20:11;;;;;;;15.10;10.82;;;17.00;99.90;;;;;;12480098;28;20045;-41
2023/05/12 09:26:43;;;;;;;9.45;7.05;;;17.10;99.90;;;;;;12477104;28;20305;-40
2023/05/12 09:32:46;;;;;;;9.88;7.43;;;17.00;99.90;;;;;;12484313;28;20045;-40
2023/05/12 09:39:04;;;;;;;12.20;9.23;;;17.30;99.90;;;;;;12484571;28;20041;-40
2023/05/12 09:45:09;;;;;;;23.30;12.70;;;17.20;99.90;;;;;;12493197;28;20048;-47
2023/05/12 09:51:17;;;;;;;18.67;14.45;;;17.30;99.90;;;;;;12489677;28;20124;-40
2023/05/12 09:57:21;;;;;;;13.45;12.05;;;17.60;99.90;;;;;;12474236;28;20175;-41
2023/05/12 10:03:28;;;;;;;12.75;10.23;;;17.60;99.90;;;;;;12474969;28;20095;-40
2023/05/12 10:09:35;;;;;;;15.45;11.35;;;17.70;99.90;;;;;;12498432;28;20057;-40
2023/05/12 10:15:37;;;;;;;15.73;11.20;;;18.20;99.90;;;;;;12476092;28;20425;-40
2023/05/12 10:21:45;;;;;;;17.13;12.20;;;18.50;99.90;;;;;;12485926;28;20056;-41
2023/05/12 10:27:48;;;;;;;14.13;10.95;;;18.80;99.90;;;;;;12491819;28;20045;-41
2023/05/12 10:34:00;;;;;;;12.27;10.63;;;19.00;99.90;;;;;;12492072;28;20092;-41
2023/05/12 10:40:03;;;;;;;14.35;9.98;;;18.90;99.90;;;;;;12478268;28;20091;-41
2023/05/12 10:46:11;;;;;;;13.55;10.68;;;19.10;99.90;;;;;;12485108;28;20045;-40
2023/05/12 10:52:18;;;;;;;14.02;11.85;;;19.50;99.90;;;;;;12473601;28;20228;-41
2023/05/12 10:58:20;;;;;;;12.68;9.82;;;19.70;99.90;;;;;;12489992;28;20071;-41
2023/05/12 11:04:41;;;;;;;10.67;7.80;;;19.60;99.90;;;;;;12468621;28;20049;-40
2023/05/12 11:10:45;;;;;;;8.10;4.45;;;19.90;99.90;;;;;;12506234;28;20144;-40
2023/05/12 11:16:47;;;;;;;7.05;4.10;;;20.00;99.90;;;;;;12473981;28;20061;-41
2023/05/12 11:22:50;;;;;;;6.43;4.30;;;20.30;99.90;;;;;;12499949;28;20686;-40
2023/05/12 11:28:53;;;;;;;8.67;4.00;;;20.10;99.90;;;;;;12495857;28;20052;-41
2023/05/12 11:34:55;;;;;;;5.93;3.00;;;20.10;99.90;;;;;;12490019;28;20042;-40
2023/05/12 11:40:57;;;;;;;3.75;2.60;;;20.30;99.90;;;;;;12494113;28;20123;-40
2023/05/12 11:47:14;;;;;;;7.78;2.92;;;20.50;99.90;;;;;;12496310;28;20078;-41
2023/05/12 11:53:17;;;;;;;3.85;2.47;;;20.50;99.90;;;;;;12496001;28;20084;-40
2023/05/12 11:59:33;;;;;;;7.53;2.40;;;20.80;99.90;;;;;;12501680;28;20515;-40
2023/05/12 12:05:34;;;;;;;4.70;2.55;;;21.30;99.90;;;;;;12490446;28;20155;-41
2023/05/12 12:11:37;;;;;;;4.80;2.50;;;21.40;99.90;;;;;;12475992;28;20077;-40
2023/05/12 12:17:39;;;;;;;4.35;2.63;;;21.30;99.90;;;;;;12466717;28;20053;-40
2023/05/12 12:23:41;;;;;;;9.90;2.87;;;21.00;99.90;;;;;;12483428;28;20050;-41
2023/05/12 12:29:52;;;;;;;7.82;2.65;;;21.10;99.90;;;;;;12477235;28;20425;-40
2023/05/12 12:35:54;;;;;;;6.20;2.67;;;20.80;99.90;;;;;;12474181;28;20724;-40
2023/05/12 12:41:56;;;;;;;4.63;2.45;;;20.90;99.90;;;;;;12463541;28;20049;-41
2023/05/12 12:47:57;;;;;;;5.20;2.40;;;21.20;99.90;;;;;;12481504;28;20045;-40
2023/05/12 12:53:59;;;;;;;4.50;1.90;;;20.90;99.90;;;;;;12488527;28;20064;-40
2023/05/12 13:00:03;;;;;;;7.05;2.65;;;21.00;99.90;;;;;;12498617;28;20128;-40
2023/05/12 13:06:05;;;;;;;3.90;2.60;;;21.10;99.90;;;;;;12497143;28;20064;-40
2023/05/12 13:12:08;;;;;;;3.75;2.20;;;21.10;99.90;;;;;;12498286;28;20049;-41
2023/05/12 13:18:10;;;;;;;6.63;2.07;;;21.10;99.90;;;;;;12481852;28;20045;-41
2023/05/12 13:24:11;;;;;;;5.50;2.30;;;21.40;99.90;;;;;;12500725;28;20060;-41
2023/05/12 13:30:13;;;;;;;3.70;2.28;;;21.20;99.90;;;;;;12494396;28;20052;-41
2023/05/12 13:36:16;;;;;;;9.10;2.67;;;21.20;99.90;;;;;;12456391;28;20068;-41
2023/05/12 13:42:20;;;;;;;6.72;2.72;;;21.30;99.90;;;;;;12486316;28;20053;-40
2023/05/12 13:48:22;;;;;;;4.15;2.70;;;21.20;99.90;;;;;;12504805;28;20041;-40
2023/05/12 13:54:24;;;;;;;6.35;2.38;;;21.20;99.90;;;;;;12500494;28;20053;-40
2023/05/12 14:00:28;;;;;;;7.63;3.03;;;21.10;99.90;;;;;;12497273;28;20224;-41
2023/05/12 14:06:31;;;;;;;5.85;3.20;;;20.90;99.90;;;;;;12506683;28;20065;-40
2023/05/12 14:12:33;;;;;;;6.32;2.95;;;20.40;99.90;;;;;;12479452;28;20049;-40
2023/05/12 14:18:34;;;;;;;19.17;3.55;;;20.90;99.90;;;;;;12495785;28;20099;-39
2023/05/12 14:24:36;;;;;;;4.78;2.60;;;21.00;99.90;;;;;;12476006;28;21012;-41
2023/05/12 14:30:47;;;;;;;6.22;2.78;;;20.80;99.90;;;;;;12487994;28;20041;-41
2023/05/12 14:36:49;;;;;;;3.33;2.25;;;20.90;99.90;;;;;;12494871;28;20056;-40
2023/05/12 14:42:51;;;;;;;9.57;3.05;;;20.80;99.90;;;;;;12491285;28;20075;-40
2023/05/12 14:48:53;;;;;;;9.23;2.95;;;20.70;99.90;;;;;;12494851;28;20049;-40
2023/05/12 14:54:55;;;;;;;6.00;2.50;;;20.80;99.90;;;;;;12496054;28;20076;-40
2023/05/12 15:00:58;;;;;;;3.85;2.25;;;21.00;99.90;;;;;;12496220;28;20041;-40
2023/05/12 15:07:00;;;;;;;5.50;2.30;;;20.90;99.90;;;;;;12487227;28;20087;-40
2023/05/12 15:13:01;;;;;;;6.43;2.50;;;20.70;99.90;;;;;;12457599;28;20049;-40
2023/05/12 15:19:03;;;;;;;7.35;2.67;;;20.80;99.90;;;;;;12473757;28;20057;-40
2023/05/12 15:25:06;;;;;;;5.60;2.63;;;20.90;99.90;;;;;;12493034;28;20042;-39
2023/05/12 15:31:08;;;;;;;7.27;2.73;;;20.80;99.90;;;;;;12472100;28;20060;-40
2023/05/12 15:37:10;;;;;;;4.72;2.55;;;21.00;99.90;;;;;;12475701;28;20055;-40
2023/05/12 15:43:12;;;;;;;7.95;2.63;;;21.10;99.90;;;;;;12469444;28;20088;-39
2023/05/12 15:49:14;;;;;;;3.63;2.05;;;21.20;99.90;;;;;;12479086;28;20123;-39
2023/05/12 15:55:16;;;;;;;3.83;2.25;;;21.00;99.90;;;;;;12481608;28;20132;-40
2023/05/12 16:01:24;;;;;;;6.63;2.30;;;20.40;99.90;;;;;;12478600;28;20099;-40
2023/05/12 16:07:29;;;;;;;7.72;2.33;;;20.10;99.90;;;;;;12457326;28;20089;-41
2023/05/12 16:13:31;;;;;;;7.15;2.60;;;20.30;99.90;;;;;;12408856;28;20414;-40
2023/05/12 16:19:33;;;;;;;5.55;2.08;;;20.60;99.90;;;;;;12426032;28;20076;-40
2023/05/12 16:25:36;;;;;;;5.00;2.08;;;20.80;99.90;;;;;;12416766;28;20557;-40
2023/05/12 16:31:38;;;;;;;9.60;2.40;;;20.80;99.90;;;;;;12439537;28;20045;-40
2023/05/12 16:37:40;;;;;;;5.20;2.15;;;20.70;99.90;;;;;;12447620;28;20375;-40
2023/05/12 16:43:42;;;;;;;6.55;2.35;;;20.70;99.90;;;;;;12429080;28;20062;-40
2023/05/12 16:49:44;;;;;;;6.72;2.20;;;20.80;99.90;;;;;;12424560;28;20479;-40
2023/05/12 16:55:46;;;;;;;6.32;2.30;;;20.70;99.90;;;;;;12414098;28;20049;-40
2023/05/12 17:01:48;;;;;;;6.18;3.10;;;20.60;99.90;;;;;;12420752;28;20157;-40
2023/05/12 17:07:52;;;;;;;5.05;2.10;;;20.60;99.90;;;;;;12455954;28;20050;-40
2023/05/12 17:13:54;;;;;;;4.65;2.15;;;20.60;99.90;;;;;;12426235;28;20464;-40
2023/05/12 17:19:56;;;;;;;4.30;2.10;;;20.50;99.90;;;;;;12456991;28;20046;-41
2023/05/12 17:25:58;;;;;;;4.88;2.33;;;20.50;99.90;;;;;;12470674;28;20067;-42
2023/05/12 17:32:00;;;;;;;6.80;2.47;;;20.50;99.90;;;;;;12440936;28;20037;-39
2023/05/12 17:38:02;;;;;;;7.13;2.40;;;20.50;99.90;;;;;;12474944;28;20049;-40
2023/05/12 17:44:04;;;;;;;5.53;2.10;;;20.50;99.90;;;;;;12433524;28;20041;-41
2023/05/12 17:50:09;;;;;;;4.88;2.47;;;20.40;99.90;;;;;;12458805;28;20129;-40
2023/05/12 17:56:11;;;;;;;4.20;2.40;;;20.50;99.90;;;;;;12412212;28;20164;-40
2023/05/12 18:02:13;;;;;;;5.90;2.20;;;20.40;99.90;;;;;;12472341;28;20476;-40
2023/05/12 18:08:16;;;;;;;5.10;2.38;;;19.90;99.90;;;;;;12444815;28;20056;-39
2023/05/12 18:14:18;;;;;;;7.32;2.60;;;19.60;99.90;;;;;;12430828;28;20041;-39
2023/05/12 18:20:19;;;;;;;7.53;2.47;;;19.40;99.90;;;;;;12443310;28;20045;-40
2023/05/12 18:26:21;;;;;;;4.47;2.22;;;19.10;99.90;;;;;;12503793;28;20049;-39
2023/05/12 18:32:23;;;;;;;5.90;2.60;;;18.90;99.90;;;;;;12488596;28;20076;-40
2023/05/12 18:38:26;;;;;;;6.15;3.00;;;18.80;99.90;;;;;;12490197;28;20512;-39
2023/05/12 18:44:28;;;;;;;5.07;2.60;;;18.70;99.90;;;;;;12495619;28;20460;-39
2023/05/12 18:50:30;;;;;;;5.63;2.45;;;18.60;99.90;;;;;;12490525;28;20049;-40
2023/05/12 18:56:32;;;;;;;4.05;2.03;;;18.40;99.90;;;;;;12469711;28;20076;-40
2023/05/12 19:02:34;;;;;;;5.35;2.42;;;18.60;99.90;;;;;;12483969;28;20045;-39
2023/05/12 19:08:36;;;;;;;4.35;2.38;;;18.40;99.90;;;;;;12478323;28;20045;-40
2023/05/12 19:14:39;;;;;;;8.15;2.30;;;18.20;99.90;;;;;;12486546;28;20053;-39
2023/05/12 19:20:41;;;;;;;7.38;2.50;;;18.10;99.90;;;;;;12487453;28;20410;-39
2023/05/12 19:26:42;;;;;;;9.48;2.60;;;17.90;99.90;;;;;;12489679;28;20496;-41
2023/05/12 19:32:44;;;;;;;10.70;2.50;;;17.50;99.90;;;;;;12486746;28;20046;-40
2023/05/12 19:38:47;;;;;;;3.92;2.75;;;17.30;99.90;;;;;;12505494;28;20087;-39
2023/05/12 19:44:49;;;;;;;7.15;2.72;;;17.30;99.90;;;;;;12478795;28;20049;-39
2023/05/12 19:50:52;;;;;;;6.00;2.85;;;17.10;99.90;;;;;;12484069;28;20091;-40
2023/05/12 19:56:54;;;;;;;6.72;2.97;;;17.00;99.90;;;;;;12484678;28;20409;-39
2023/05/12 20:02:56;;;;;;;7.25;2.75;;;16.80;99.90;;;;;;12489732;28;20094;-39
2023/05/12 20:08:58;;;;;;;6.00;2.88;;;16.10;99.90;;;;;;12496470;28;20080;-39
2023/05/12 20:15:00;;;;;;;5.15;2.78;;;15.70;99.90;;;;;;12475928;28;20098;-40
2023/05/12 20:21:02;;;;;;;7.80;2.95;;;15.80;99.90;;;;;;12500226;28;20183;-39
2023/05/12 20:27:04;;;;;;;5.93;3.10;;;15.80;99.90;;;;;;12512253;28;20053;-41
2023/05/12 20:33:06;;;;;;;3.83;2.60;;;15.70;99.90;;;;;;12497807;28;20049;-40
2023/05/12 20:39:08;;;;;;;11.55;2.60;;;15.80;99.90;;;;;;12498691;28;20061;-39
2023/05/12 20:45:11;;;;;;;3.97;2.72;;;15.80;99.90;;;;;;12488928;28;20602;-39
2023/05/12 20:51:13;;;;;;;5.10;3.53;;;15.70;99.90;;;;;;12496118;28;20041;-39
2023/05/12 20:57:15;;;;;;;5.03;2.78;;;15.70;99.90;;;;;;12472273;28;20072;-39
2023/05/12 21:03:17;;;;;;;5.07;2.90;;;15.50;99.90;;;;;;12488610;28;20042;-40
2023/05/12 21:09:19;;;;;;;5.90;2.92;;;15.50;99.90;;;;;;12492007;28;20064;-39
2023/05/12 21:15:22;;;;;;;6.30;2.90;;;15.50;99.90;;;;;;12495503;28;20606;-37
2023/05/12 21:21:27;;;;;;;6.20;3.00;;;15.40;99.90;;;;;;12478659;28;20053;-37
2023/05/12 21:27:29;;;;;;;7.53;3.38;;;15.20;99.90;;;;;;12496882;28;20490;-37
2023/05/12 21:33:32;;;;;;;5.45;3.10;;;15.00;99.90;;;;;;12444654;28;20144;-37
2023/05/12 21:39:33;;;;;;;6.28;3.15;;;14.80;99.90;;;;;;12462439;28;20057;-38
2023/05/12 21:45:36;;;;;;;5.47;3.08;;;14.80;99.90;;;;;;12477663;28;20033;-37
2023/05/12 21:51:38;;;;;;;6.40;3.15;;;14.80;99.90;;;;;;12477046;28;20465;-38
2023/05/12 21:57:41;;;;;;;6.85;3.30;;;14.60;99.90;;;;;;12467002;28;20049;-37
2023/05/12 22:03:43;;;;;;;4.25;2.90;;;14.50;99.90;;;;;;12470847;28;20041;-36
2023/05/12 22:09:44;;;;;;;4.30;3.20;;;14.50;99.90;;;;;;12479939;28;20064;-37
2023/05/12 22:15:46;;;;;;;6.28;2.80;;;14.50;99.90;;;;;;12479226;28;20087;-37
2023/05/12 22:21:48;;;;;;;4.90;2.97;;;14.50;99.90;;;;;;12486987;28;20087;-37
2023/05/12 22:27:50;;;;;;;6.32;3.30;;;14.40;99.90;;;;;;12487783;28;20053;-37
2023/05/12 22:33:52;;;;;;;6.75;4.25;;;14.50;99.90;;;;;;12498760;28;20102;-37
2023/05/12 22:39:54;;;;;;;6.13;3.53;;;14.40;99.90;;;;;;12457928;28;20175;-37
2023/05/12 22:45:56;;;;;;;7.22;3.17;;;14.00;99.90;;;;;;12482608;28;20045;-36
2023/05/12 22:51:58;;;;;;;8.52;3.75;;;14.10;99.90;;;;;;12485342;28;20045;-37
2023/05/12 22:58:00;;;;;;;9.40;3.97;;;14.10;99.90;;;;;;12476093;28;20053;-37
2023/05/12 23:04:02;;;;;;;4.75;3.30;;;14.10;99.90;;;;;;12485283;28;20445;-37
2023/05/12 23:10:04;;;;;;;8.82;4.22;;;13.50;99.90;;;;;;12475205;28;20400;-37
2023/05/12 23:16:06;;;;;;;5.50;3.80;;;13.30;99.90;;;;;;12457001;28;20092;-36
2023/05/12 23:22:08;;;;;;;6.68;3.95;;;13.60;99.90;;;;;;12457777;28;20124;-37
2023/05/12 23:28:10;;;;;;;5.90;3.85;;;13.30;99.90;;;;;;12488454;28;20103;-37
2023/05/12 23:34:12;;;;;;;6.93;4.03;;;13.30;99.90;;;;;;12479546;28;20049;-37
2023/05/12 23:40:15;;;;;;;7.35;3.78;;;13.30;99.90;;;;;;12467497;28;20103;-37
2023/05/12 23:46:17;;;;;;;9.25;4.15;;;13.30;99.90;;;;;;12470507;28;20057;-37
2023/05/12 23:52:19;;;;;;;7.30;4.10;;;13.30;99.90;;;;;;12480534;28;20478;-37
2023/05/12 23:58:21;;;;;;;7.07;3.65;;;13.20;99.90;;;;;;12483410;28;20045;-37
